Time;durP1;ratioP1;P1;durP2;ratioP2;P2;SDS_P1;SDS_P2;PMS_P1;PMS_P2;Temp;Humidity;BMP_temperature;BMP_pressure;BME280_temperature;BME280_humidity;BME280_pressure;Samples;Min_cycle;Max_cycle;Signal;HPM_P1;HPM_P2
2021/12/31 00:01:56;;;;;;;;;;;;;;;11.17;67.92;101626.31;5074862;28;19912;-77
2021/12/31 00:04:41;;;;;;;;;;;;;;;11.05;68.40;101622.13;5071857;28;19920;-76
2021/12/31 00:07:25;;;;;;;;;;;;;;;10.82;69.00;101617.56;5076516;28;19912;-76
2021/12/31 00:10:09;;;;;;;;;;;;;;;10.60;69.07;101620.88;5074745;28;19912;-77
2021/12/31 00:12:56;;;;;;;;;;;;;;;10.59;68.37;101621.97;5073128;28;20320;-75
2021/12/31 00:15:40;;;;;;;;;;;;;;;10.68;68.91;101622.13;5076461;28;19916;-76
2021/12/31 00:18:25;;;;;;;;;;;;;;;10.68;69.98;101622.13;5074051;28;19913;-76
2021/12/31 00:21:09;;;;;;;;;;;;;;;10.49;68.92;101624.03;5078226;28;19912;-76
2021/12/31 00:23:56;;;;;;;;;;;;;;;10.54;66.70;101621.25;5076751;28;20376;-76
2021/12/31 00:26:41;;;;;;;;;;;;;;;10.66;66.44;101624.34;5073596;28;19916;-75
2021/12/31 00:29:26;;;;;;;;;;;;;;;10.79;67.39;101629.03;5073732;28;19912;-76
2021/12/31 00:32:10;;;;;;;;;;;;;;;10.84;68.53;101630.88;5077089;28;19913;-77
2021/12/31 00:34:55;;;;;;;;;;;;;;;10.62;66.03;101628.72;5074767;28;20400;-76
2021/12/31 00:37:39;;;;;;;;;;;;;;;10.68;66.93;101638.44;5073493;28;20296;-76
2021/12/31 00:40:26;;;;;;;;;;;;;;;10.69;69.34;101626.47;5071562;28;19916;-76
2021/12/31 00:43:11;;;;;;;;;;;;;;;10.68;67.57;101627.56;5075623;28;19912;-76
2021/12/31 00:45:55;;;;;;;;;;;;;;;10.78;69.46;101634.78;5073797;28;19913;-76
2021/12/31 00:48:39;;;;;;;;;;;;;;;10.80;69.77;101643.47;5071555;28;20377;-77
2021/12/31 00:51:24;;;;;;;;;;;;;;;10.87;71.57;101639.25;5078207;28;19912;-76
2021/12/31 00:54:09;;;;;;;;;;;;;;;10.94;72.13;101644.34;5073490;28;19912;-76
2021/12/31 00:56:59;;;;;;;;;;;;;;;10.82;71.02;101638.56;5071667;28;19913;-76
2021/12/31 00:59:43;;;;;;;;;;;;;;;10.95;72.89;101640.53;5075405;28;19912;-77
2021/12/31 01:02:29;;;;;;;;;;;;;;;10.84;71.09;101639.03;5073378;28;19912;-76
2021/12/31 01:05:14;;;;;;;;;;;;;;;10.87;69.26;101633.81;5071108;28;19916;-76
2021/12/31 01:07:59;;;;;;;;;;;;;;;10.88;69.28;101637.34;5075983;28;19912;-75
2021/12/31 01:10:43;;;;;;;;;;;;;;;10.85;65.95;101633.31;5054041;28;19913;-76
2021/12/31 01:13:47;;;;;;;;;;;;;;;10.84;64.93;101642.56;5070390;28;20304;-76
2021/12/31 01:16:38;;;;;;;;;;;;;;;10.55;67.31;101645.44;5074253;28;19916;-76
2021/12/31 01:22:07;;;;;;;;;;;;;;;10.71;67.58;101657.72;5080589;28;20288;-77
2021/12/31 01:24:52;;;;;;;;;;;;;;;10.53;66.44;101658.50;5078474;28;19916;-76
2021/12/31 01:27:38;;;;;;;;;;;;;;;10.54;67.17;101659.31;5077838;28;20292;-76
2021/12/31 01:30:22;;;;;;;;;;;;;;;10.55;67.22;101652.78;5080751;28;19919;-76
2021/12/31 01:33:08;;;;;;;;;;;;;;;10.69;67.20;101664.56;5078773;28;20388;-75
2021/12/31 01:35:52;;;;;;;;;;;;;;;10.73;68.35;101662.84;5077462;28;19919;-76
2021/12/31 01:38:36;;;;;;;;;;;;;;;10.64;67.78;101653.75;5075430;28;19913;-76
2021/12/31 01:41:21;;;;;;;;;;;;;;;10.71;66.46;101654.19;5079021;28;19920;-77
2021/12/31 01:44:06;;;;;;;;;;;;;;;10.67;64.93;101653.16;5076094;28;20308;-75
2021/12/31 01:46:55;;;;;;;;;;;;;;;10.68;63.79;101644.69;5075126;28;19916;-76
2021/12/31 01:49:42;;;;;;;;;;;;;;;10.57;66.79;101654.09;5078966;28;19912;-75
2021/12/31 01:52:27;;;;;;;;;;;;;;;10.56;66.35;101655.22;5077176;28;19912;-76
2021/12/31 01:55:12;;;;;;;;;;;;;;;10.54;63.64;101643.00;5054670;28;19917;-76
2021/12/31 01:57:57;;;;;;;;;;;;;;;10.51;65.22;101640.88;5059029;28;20277;-76
2021/12/31 02:00:41;;;;;;;;;;;;;;;10.51;66.17;101654.47;5064758;28;19916;-76
2021/12/31 02:03:25;;;;;;;;;;;;;;;10.39;63.56;101646.72;5059302;28;19912;-76
2021/12/31 02:06:10;;;;;;;;;;;;;;;10.22;65.86;101658.06;5077897;28;19912;-75
2021/12/31 02:08:55;;;;;;;;;;;;;;;10.31;66.53;101638.41;5077371;28;19912;-76
2021/12/31 02:11:40;;;;;;;;;;;;;;;10.37;64.97;101648.09;5074954;28;19912;-76
2021/12/31 02:14:24;;;;;;;;;;;;;;;10.43;64.06;101639.59;5078421;28;19916;-77
2021/12/31 02:17:10;;;;;;;;;;;;;;;10.38;63.17;101641.56;5074940;28;19912;-75
2021/12/31 02:20:00;;;;;;;;;;;;;;;10.27;63.66;101640.88;5075430;28;19912;-76
2021/12/31 02:22:54;;;;;;;;;;;;;;;10.18;63.70;101646.16;5078747;28;20312;-75
2021/12/31 02:25:39;;;;;;;;;;;;;;;10.16;62.11;101645.63;5076864;28;19916;-76
2021/12/31 02:28:24;;;;;;;;;;;;;;;10.15;62.94;101649.44;5073952;28;20301;-76
2021/12/31 02:31:09;;;;;;;;;;;;;;;10.14;61.67;101638.84;5076907;28;19912;-76
2021/12/31 02:33:53;;;;;;;;;;;;;;;10.07;61.94;101638.38;5072502;28;20304;-76
2021/12/31 02:36:38;;;;;;;;;;;;;;;10.11;61.71;101632.06;5075157;28;20369;-76
2021/12/31 02:39:22;;;;;;;;;;;;;;;10.15;60.94;101635.84;5079030;28;20296;-76
2021/12/31 02:42:08;;;;;;;;;;;;;;;10.02;62.04;101633.81;5076608;28;19912;-76
2021/12/31 02:44:55;;;;;;;;;;;;;;;9.98;62.76;101632.75;5074189;28;19916;-76
2021/12/31 02:47:45;;;;;;;;;;;;;;;10.00;62.68;101630.59;5078878;28;20373;-76
2021/12/31 02:50:34;;;;;;;;;;;;;;;10.00;62.60;101622.44;5065689;28;19913;-76
2021/12/31 02:53:23;;;;;;;;;;;;;;;10.05;63.34;101627.81;5073753;28;20380;-76
2021/12/31 02:56:09;;;;;;;;;;;;;;;10.12;66.41;101633.69;5077072;28;19920;-76
2021/12/31 02:58:54;;;;;;;;;;;;;;;10.09;66.29;101631.56;5076421;28;19913;-76
2021/12/31 03:01:39;;;;;;;;;;;;;;;10.14;69.67;101634.22;5074365;28;19912;-75
2021/12/31 03:04:24;;;;;;;;;;;;;;;10.13;72.06;101629.88;5062746;28;19916;-76
2021/12/31 03:07:09;;;;;;;;;;;;;;;10.09;72.12;101628.03;5073954;28;20300;-76
2021/12/31 03:09:54;;;;;;;;;;;;;;;10.00;71.10;101627.88;5074874;28;19912;-77
2021/12/31 03:12:40;;;;;;;;;;;;;;;10.16;72.27;101634.75;5063624;28;19912;-76
2021/12/31 03:15:25;;;;;;;;;;;;;;;10.06;70.14;101623.97;5075760;28;20384;-75
2021/12/31 03:18:10;;;;;;;;;;;;;;;9.98;69.31;101627.31;5074681;28;19912;-76
2021/12/31 03:21:01;;;;;;;;;;;;;;;9.95;65.68;101625.19;5078284;28;19915;-76
2021/12/31 03:23:45;;;;;;;;;;;;;;;9.94;68.39;101626.28;5073505;28;19912;-76
2021/12/31 03:26:29;;;;;;;;;;;;;;;9.85;68.77;101620.66;5072193;28;19913;-76
2021/12/31 03:29:14;;;;;;;;;;;;;;;9.92;69.25;101631.19;5072655;28;20295;-76
2021/12/31 03:31:58;;;;;;;;;;;;;;;9.86;69.15;101626.91;5073520;28;19912;-77
2021/12/31 03:34:43;;;;;;;;;;;;;;;9.94;64.66;101630.91;5077732;28;19912;-77
2021/12/31 03:37:27;;;;;;;;;;;;;;;9.82;64.16;101631.31;5052555;28;19917;-75
2021/12/31 03:40:11;;;;;;;;;;;;;;;9.85;64.71;101638.91;5057519;28;19917;-76
2021/12/31 03:42:56;;;;;;;;;;;;;;;9.80;64.44;101633.50;5074494;28;19933;-76
2021/12/31 03:45:41;;;;;;;;;;;;;;;9.83;62.95;101630.22;5072106;28;19920;-76
2021/12/31 03:48:26;;;;;;;;;;;;;;;9.86;63.36;101635.06;5076881;28;19912;-76
2021/12/31 03:51:10;;;;;;;;;;;;;;;9.92;62.40;101628.47;5072430;28;19912;-76
2021/12/31 03:53:55;;;;;;;;;;;;;;;9.90;64.97;101629.88;5070952;28;19912;-76
2021/12/31 03:56:39;;;;;;;;;;;;;;;9.88;62.68;101630.97;5073629;28;19912;-77
2021/12/31 03:59:24;;;;;;;;;;;;;;;9.93;62.46;101630.09;5073541;28;19912;-75
2021/12/31 04:02:08;;;;;;;;;;;;;;;9.93;64.96;101638.25;5064132;28;20312;-76
2021/12/31 04:04:53;;;;;;;;;;;;;;;9.96;67.14;101637.66;5076231;28;19916;-76
2021/12/31 04:07:38;;;;;;;;;;;;;;;10.02;69.56;101628.38;5074365;28;19912;-77
2021/12/31 04:10:25;;;;;;;;;;;;;;;9.91;67.86;101628.75;5064817;28;19912;-76
2021/12/31 04:13:10;;;;;;;;;;;;;;;9.83;64.79;101627.50;5069723;28;19913;-76
2021/12/31 04:15:54;;;;;;;;;;;;;;;9.90;63.22;101636.13;5071030;28;20428;-76
2021/12/31 04:18:39;;;;;;;;;;;;;;;9.88;62.45;101635.59;5067468;28;19913;-75
2021/12/31 04:21:24;;;;;;;;;;;;;;;9.84;63.78;101640.78;5076647;28;19913;-76
2021/12/31 04:24:16;;;;;;;;;;;;;;;9.82;64.47;101639.44;5074530;28;19917;-77
2021/12/31 04:27:02;;;;;;;;;;;;;;;9.82;62.27;101637.53;5072298;28;19912;-77
2021/12/31 04:29:51;;;;;;;;;;;;;;;9.78;63.67;101638.41;5076730;28;20320;-76
2021/12/31 04:32:36;;;;;;;;;;;;;;;9.78;65.20;101641.13;5054532;28;20378;-76
2021/12/31 04:35:20;;;;;;;;;;;;;;;9.70;63.94;101639.06;5053387;28;19912;-74
2021/12/31 04:38:05;;;;;;;;;;;;;;;9.64;63.81;101643.72;5056752;28;19913;-76
2021/12/31 04:40:49;;;;;;;;;;;;;;;9.51;63.05;101646.25;5061008;28;20408;-77
2021/12/31 04:43:33;;;;;;;;;;;;;;;9.60;63.33;101641.84;5072216;28;19916;-75
2021/12/31 04:46:18;;;;;;;;;;;;;;;9.69;64.45;101648.28;5074520;28;20304;-76
2021/12/31 04:49:03;;;;;;;;;;;;;;;9.60;63.04;101650.00;5075190;28;20373;-75
2021/12/31 04:51:47;;;;;;;;;;;;;;;9.50;63.72;101644.66;5074154;28;20378;-76
2021/12/31 04:54:32;;;;;;;;;;;;;;;9.52;63.61;101642.47;5080609;28;19920;-77
2021/12/31 04:57:16;;;;;;;;;;;;;;;9.63;69.77;101654.84;5075792;28;19912;-76
2021/12/31 05:00:00;;;;;;;;;;;;;;;9.49;65.98;101648.47;5077598;28;19912;-76
2021/12/31 05:02:45;;;;;;;;;;;;;;;9.47;62.18;101647.94;5075327;28;19912;-76
2021/12/31 05:05:29;;;;;;;;;;;;;;;9.53;62.33;101649.50;5078934;28;19917;-77
2021/12/31 05:08:14;;;;;;;;;;;;;;;9.54;62.11;101654.66;5058047;28;19912;-76
2021/12/31 05:10:58;;;;;;;;;;;;;;;9.61;62.60;101662.47;5061561;28;19912;-76
2021/12/31 05:13:42;;;;;;;;;;;;;;;9.64;64.44;101654.56;5078902;28;19912;-76
2021/12/31 05:16:27;;;;;;;;;;;;;;;9.55;63.52;101644.63;5076578;28;19913;-76
2021/12/31 05:19:11;;;;;;;;;;;;;;;9.54;64.45;101646.53;5076046;28;19916;-77
2021/12/31 05:21:56;;;;;;;;;;;;;;;9.53;62.93;101646.81;5079603;28;20327;-76
2021/12/31 05:24:40;;;;;;;;;;;;;;;9.55;61.89;101639.19;5057341;28;19917;-76
2021/12/31 05:27:24;;;;;;;;;;;;;;;9.47;62.31;101646.03;5055416;28;19913;-75
2021/12/31 05:30:09;;;;;;;;;;;;;;;9.41;63.07;101653.41;5060135;28;19913;-75
2021/12/31 05:32:54;;;;;;;;;;;;;;;9.37;63.94;101648.84;5075479;28;19912;-76
2021/12/31 05:35:38;;;;;;;;;;;;;;;9.34;63.13;101655.66;5075562;28;20327;-76
2021/12/31 05:38:23;;;;;;;;;;;;;;;9.35;61.35;101659.97;5080336;28;19912;-77
2021/12/31 05:41:07;;;;;;;;;;;;;;;9.38;62.30;101664.84;5077154;28;19912;-76
2021/12/31 05:43:51;;;;;;;;;;;;;;;9.37;63.73;101657.78;5074424;28;19916;-76
2021/12/31 05:46:36;;;;;;;;;;;;;;;9.37;63.05;101656.97;5076810;28;20373;-76
2021/12/31 05:49:21;;;;;;;;;;;;;;;9.44;64.37;101665.63;5078803;28;19912;-76
2021/12/31 05:52:06;;;;;;;;;;;;;;;9.47;63.56;101672.38;5076288;28;19912;-76
2021/12/31 05:54:51;;;;;;;;;;;;;;;9.47;64.09;101677.78;5073554;28;19920;-77
2021/12/31 05:57:35;;;;;;;;;;;;;;;9.53;65.19;101677.47;5078427;28;20323;-77
2021/12/31 06:00:20;;;;;;;;;;;;;;;9.59;66.09;101680.97;5077048;28;19912;-76
2021/12/31 06:03:05;;;;;;;;;;;;;;;9.58;66.23;101682.88;5072995;28;19916;-75
2021/12/31 06:05:50;;;;;;;;;;;;;;;9.61;66.09;101687.72;5065194;28;20365;-76
2021/12/31 06:08:35;;;;;;;;;;;;;;;9.56;62.11;101692.38;5071245;28;19913;-76
2021/12/31 06:11:19;;;;;;;;;;;;;;;9.58;65.34;101691.00;5070836;28;19912;-76
2021/12/31 06:14:05;;;;;;;;;;;;;;;9.55;64.81;101691.56;5075996;28;20372;-77
2021/12/31 06:16:51;;;;;;;;;;;;;;;9.53;64.33;101682.91;5073864;28;19912;-76
2021/12/31 06:19:35;;;;;;;;;;;;;;;9.48;65.60;101693.00;5055140;28;20397;-76
2021/12/31 06:22:20;;;;;;;;;;;;;;;9.47;64.06;101694.09;5058888;28;19913;-77
2021/12/31 06:25:05;;;;;;;;;;;;;;;9.64;67.32;101694.50;5057713;28;19916;-75
2021/12/31 06:27:50;;;;;;;;;;;;;;;9.56;67.63;101704.06;5074257;28;19912;-75
2021/12/31 06:30:35;;;;;;;;;;;;;;;7.79;60.72;101695.88;5079392;28;19912;-76
2021/12/31 06:33:19;;;;;;;;;;;;;;;6.82;65.83;101692.25;5077245;28;19912;-76
2021/12/31 06:36:03;;;;;;;;;;;;;;;6.07;67.01;101682.75;5075055;28;19912;-76
2021/12/31 06:38:50;;;;;;;;;;;;;;;5.96;67.79;101695.38;5079178;28;19912;-77
2021/12/31 06:41:34;;;;;;;;;;;;;;;5.55;67.13;101696.94;5077403;28;19912;-76
2021/12/31 06:44:19;;;;;;;;;;;;;;;4.97;70.32;101707.72;5074589;28;19912;-77
2021/12/31 06:47:04;;;;;;;;;;;;;;;5.10;69.46;101702.72;5074361;28;19912;-76
2021/12/31 06:49:48;;;;;;;;;;;;;;;4.47;71.48;101697.19;5077760;28;19912;-76
2021/12/31 06:52:37;;;;;;;;;;;;;;;4.56;72.96;101693.78;5075805;28;19913;-76
2021/12/31 06:55:21;;;;;;;;;;;;;;;4.70;73.43;101694.22;5072433;28;19920;-76
2021/12/31 06:58:05;;;;;;;;;;;;;;;4.68;72.72;101696.34;5077006;28;19904;-76
2021/12/31 07:00:50;;;;;;;;;;;;;;;4.08;73.68;101699.88;5075162;28;19913;-76
2021/12/31 07:03:34;;;;;;;;;;;;;;;4.28;75.00;101707.41;5073194;28;19912;-75
2021/12/31 07:06:18;;;;;;;;;;;;;;;4.60;73.72;101704.88;5076204;28;19916;-75
2021/12/31 07:09:03;;;;;;;;;;;;;;;4.33;75.34;101712.88;5055616;28;19912;-76
2021/12/31 07:11:47;;;;;;;;;;;;;;;4.44;75.11;101708.44;5053512;28;19912;-76
2021/12/31 07:14:31;;;;;;;;;;;;;;;4.54;74.16;101713.94;5056429;28;19917;-76
2021/12/31 07:17:16;;;;;;;;;;;;;;;4.50;74.38;101723.59;5066196;28;19912;-77
2021/12/31 07:20:00;;;;;;;;;;;;;;;4.35;73.90;101720.69;5074001;28;19931;-76
2021/12/31 07:22:45;;;;;;;;;;;;;;;4.44;76.49;101721.88;5080480;28;19912;-77
2021/12/31 07:25:30;;;;;;;;;;;;;;;4.44;76.18;101716.50;5087505;28;19916;-77
2021/12/31 07:28:15;;;;;;;;;;;;;;;4.17;75.72;101714.53;5071986;28;19912;-76
2021/12/31 07:31:00;;;;;;;;;;;;;;;4.45;75.63;101712.75;5077799;28;20293;-76
2021/12/31 07:33:44;;;;;;;;;;;;;;;4.54;75.42;101722.03;5074751;28;19912;-77
2021/12/31 07:36:29;;;;;;;;;;;;;;;4.68;74.62;101712.50;5073574;28;19912;-76
2021/12/31 07:39:14;;;;;;;;;;;;;;;4.73;74.82;101717.94;5086171;28;20321;-76
2021/12/31 07:41:58;;;;;;;;;;;;;;;4.74;74.58;101720.41;5083596;28;19913;-77
2021/12/31 07:44:51;;;;;;;;;;;;;;;4.78;75.22;101720.69;5060058;28;19916;-76
2021/12/31 07:47:35;;;;;;;;;;;;;;;4.73;75.07;101723.34;5084652;28;19989;-76
2021/12/31 07:50:19;;;;;;;;;;;;;;;4.78;76.56;101725.25;5077996;28;19912;-77
2021/12/31 07:53:04;;;;;;;;;;;;;;;4.88;74.93;101722.69;5059888;28;19912;-77
2021/12/31 07:55:50;;;;;;;;;;;;;;;4.93;74.15;101738.91;5082517;28;19916;-76
2021/12/31 07:58:34;;;;;;;;;;;;;;;4.48;75.75;101740.00;5092252;28;19912;-76
2021/12/31 08:01:19;;;;;;;;;;;;;;;4.49;76.86;101744.31;5094292;28;20383;-76
2021/12/31 08:04:03;;;;;;;;;;;;;;;4.77;76.97;101745.22;5097465;28;19916;-76
2021/12/31 08:06:47;;;;;;;;;;;;;;;5.01;75.77;101750.09;5074961;28;19916;-76
2021/12/31 08:09:32;;;;;;;;;;;;;;;4.45;75.55;101748.59;5074300;28;19916;-76
2021/12/31 08:12:16;;;;;;;;;;;;;;;4.58;77.10;101758.16;5072331;28;19913;-76
2021/12/31 08:15:01;;;;;;;;;;;;;;;4.53;76.42;101750.00;5075078;28;19912;-76
2021/12/31 08:17:46;;;;;;;;;;;;;;;4.25;77.89;101754.50;5074331;28;19912;-77
2021/12/31 08:20:31;;;;;;;;;;;;;;;4.22;78.55;101754.97;5071738;28;19912;-76
2021/12/31 08:23:16;;;;;;;;;;;;;;;4.19;78.00;101760.88;5075647;28;20380;-77
2021/12/31 08:26:02;;;;;;;;;;;;;;;4.16;77.78;101758.69;5058903;28;20321;-77
2021/12/31 08:28:46;;;;;;;;;;;;;;;4.20;77.92;101762.50;5069573;28;19912;-76
2021/12/31 08:31:31;;;;;;;;;;;;;;;4.28;77.69;101759.38;5072247;28;19912;-76
2021/12/31 08:34:16;;;;;;;;;;;;;;;4.28;76.24;101751.31;5071866;28;19912;-77
2021/12/31 08:37:00;;;;;;;;;;;;;;;3.80;77.60;101764.56;5065022;28;19916;-76
2021/12/31 08:39:45;;;;;;;;;;;;;;;3.76;78.08;101769.59;5072513;28;19916;-77
2021/12/31 08:42:29;;;;;;;;;;;;;;;3.69;80.30;101765.47;5063636;28;19912;-77
2021/12/31 08:45:14;;;;;;;;;;;;;;;4.27;76.96;101773.91;5071202;28;19916;-76
2021/12/31 08:47:59;;;;;;;;;;;;;;;3.66;78.43;101772.13;5070193;28;19912;-77
2021/12/31 08:50:43;;;;;;;;;;;;;;;3.77;79.89;101773.09;5074437;28;19912;-77
2021/12/31 08:53:28;;;;;;;;;;;;;;;3.85;78.95;101775.41;5064316;28;19912;-77
2021/12/31 08:56:12;;;;;;;;;;;;;;;3.85;77.61;101780.78;5074147;28;19916;-77
2021/12/31 08:58:56;;;;;;;;;;;;;;;4.05;76.81;101786.50;5070549;28;19912;-76
2021/12/31 09:01:41;;;;;;;;;;;;;;;3.89;76.91;101787.31;5072177;28;19912;-75
2021/12/31 09:04:26;;;;;;;;;;;;;;;3.38;78.66;101791.81;5065697;28;19916;-75
2021/12/31 09:07:10;;;;;;;;;;;;;;;3.84;78.14;101790.72;5069556;28;19916;-76
2021/12/31 09:09:54;;;;;;;;;;;;;;;3.79;76.01;101787.13;5072579;28;19912;-74
2021/12/31 09:12:39;;;;;;;;;;;;;;;3.78;76.67;101790.88;5070686;28;19912;-75
2021/12/31 09:15:24;;;;;;;;;;;;;;;4.01;77.12;101798.00;5074298;28;19912;-74
2021/12/31 09:18:08;;;;;;;;;;;;;;;3.37;78.93;101798.25;5052723;28;19913;-75
2021/12/31 09:20:53;;;;;;;;;;;;;;;3.72;78.68;101786.47;5068431;28;19921;-75
2021/12/31 09:23:37;;;;;;;;;;;;;;;4.07;76.78;101788.94;5068497;28;19916;-74
2021/12/31 09:26:22;;;;;;;;;;;;;;;3.98;77.69;101799.28;5073754;28;19920;-75
2021/12/31 09:29:06;;;;;;;;;;;;;;;3.84;79.25;101789.91;5070049;28;20312;-75
2021/12/31 09:31:51;;;;;;;;;;;;;;;4.10;77.33;101804.59;5076284;28;19912;-74
2021/12/31 09:34:35;;;;;;;;;;;;;;;3.50;80.88;101804.38;5073690;28;19912;-75
2021/12/31 09:37:20;;;;;;;;;;;;;;;3.85;80.03;101802.31;5071816;28;20377;-74
2021/12/31 09:40:05;;;;;;;;;;;;;;;4.14;79.45;101801.16;5079832;28;20388;-74
2021/12/31 09:43:08;;;;;;;;;;;;;;;3.74;79.99;101795.94;5078173;28;19912;-74
2021/12/31 09:45:53;;;;;;;;;;;;;;;4.13;80.21;101794.16;5071625;28;19920;-75
2021/12/31 09:48:37;;;;;;;;;;;;;;;4.49;78.11;101797.38;5079585;28;19920;-74
2021/12/31 09:51:23;;;;;;;;;;;;;;;4.68;76.55;101801.41;5074360;28;20566;-75
2021/12/31 09:54:08;;;;;;;;;;;;;;;4.64;77.24;101800.28;5075433;28;20381;-74
2021/12/31 09:56:52;;;;;;;;;;;;;;;4.61;76.94;101801.59;5076073;28;20376;-74
2021/12/31 09:59:40;;;;;;;;;;;;;;;4.70;77.50;101810.88;5071893;28;19913;-73
2021/12/31 10:02:28;;;;;;;;;;;;;;;4.71;77.26;101817.06;5068290;28;19912;-73
2021/12/31 10:05:13;;;;;;;;;;;;;;;4.83;76.09;101817.75;5078641;28;19916;-73
2021/12/31 10:07:57;;;;;;;;;;;;;;;5.05;75.73;101820.47;5077120;28;19912;-74
2021/12/31 10:10:42;;;;;;;;;;;;;;;5.14;73.69;101810.88;5074942;28;19916;-75
2021/12/31 10:13:26;;;;;;;;;;;;;;;4.89;75.07;101805.97;5071981;28;19912;-74
2021/12/31 10:16:31;;;;;;;;;;;;;;;5.03;75.13;101807.22;5074386;28;20285;-74
2021/12/31 10:19:19;;;;;;;;;;;;;;;4.44;77.44;101805.38;5074816;28;19912;-73
2021/12/31 10:22:16;;;;;;;;;;;;;;;4.76;78.19;101813.63;5077981;28;19934;-74
2021/12/31 10:25:01;;;;;;;;;;;;;;;4.76;77.32;101809.06;5072995;28;19912;-74
2021/12/31 10:27:46;;;;;;;;;;;;;;;4.81;78.00;101803.75;5073363;28;20304;-76
2021/12/31 10:30:30;;;;;;;;;;;;;;;5.03;76.30;101798.31;5077467;28;19912;-74
2021/12/31 10:33:15;;;;;;;;;;;;;;;4.95;75.95;101796.91;5076338;28;19912;-74
2021/12/31 10:36:00;;;;;;;;;;;;;;;4.73;76.37;101794.19;5071348;28;19912;-74
2021/12/31 10:38:44;;;;;;;;;;;;;;;5.69;74.43;101786.34;5074120;28;19940;-72
2021/12/31 10:41:29;;;;;;;;;;;;;;;5.96;73.11;101792.56;5074742;28;19913;-73
2021/12/31 10:44:14;;;;;;;;;;;;;;;6.19;73.28;101786.00;5073026;28;19916;-73
2021/12/31 10:47:09;;;;;;;;;;;;;;;6.68;71.48;101783.84;5080751;28;20388;-74
2021/12/31 10:50:00;;;;;;;;;;;;;;;6.77;69.93;101774.16;5082163;28;19916;-73
2021/12/31 10:53:00;;;;;;;;;;;;;;;6.15;71.00;101779.47;5077216;28;19916;-73
2021/12/31 10:55:45;;;;;;;;;;;;;;;6.49;72.55;101774.56;5081933;28;19916;-73
2021/12/31 10:58:31;;;;;;;;;;;;;;;6.47;72.54;101765.91;5079845;28;20391;-73
2021/12/31 11:01:15;;;;;;;;;;;;;;;7.05;69.87;101761.28;5080706;28;19920;-73
2021/12/31 11:04:00;;;;;;;;;;;;;;;7.20;69.47;101755.94;5079211;28;19915;-73
2021/12/31 11:06:45;;;;;;;;;;;;;;;7.54;68.10;101748.13;5080837;28;19920;-73
2021/12/31 11:09:31;;;;;;;;;;;;;;;7.50;68.67;101741.63;5073172;28;19912;-74
2021/12/31 11:12:16;;;;;;;;;;;;;;;7.15;68.65;101740.50;5068483;28;19912;-74
2021/12/31 11:15:00;;;;;;;;;;;;;;;7.23;69.69;101741.84;5068884;28;19912;-73
2021/12/31 11:17:45;;;;;;;;;;;;;;;7.85;67.00;101730.81;5067327;28;19913;-73
2021/12/31 11:20:30;;;;;;;;;;;;;;;8.57;64.83;101740.44;5067395;28;20381;-74
2021/12/31 11:23:14;;;;;;;;;;;;;;;8.22;65.45;101725.06;5062752;28;19912;-73
2021/12/31 11:26:00;;;;;;;;;;;;;;;8.31;65.82;101714.50;5066304;28;19916;-74
2021/12/31 11:28:44;;;;;;;;;;;;;;;8.03;66.63;101718.59;5074644;28;19920;-74
2021/12/31 11:31:29;;;;;;;;;;;;;;;7.36;69.05;101717.00;5066831;28;19913;-73
2021/12/31 11:34:14;;;;;;;;;;;;;;;7.32;69.24;101707.78;5060326;28;19920;-74
2021/12/31 11:37:01;;;;;;;;;;;;;;;7.54;69.96;101712.94;5067498;28;19916;-74
2021/12/31 11:39:48;;;;;;;;;;;;;;;7.54;70.09;101711.06;5071338;28;19912;-73
2021/12/31 11:42:32;;;;;;;;;;;;;;;7.62;69.38;101705.09;5067260;28;19916;-73
2021/12/31 11:45:17;;;;;;;;;;;;;;;8.21;68.25;101703.66;5067958;28;20376;-73
2021/12/31 11:48:06;;;;;;;;;;;;;;;8.24;67.25;101701.22;5066436;28;20304;-72
2021/12/31 11:51:04;;;;;;;;;;;;;;;8.04;67.42;101703.97;5065814;28;19912;-73
2021/12/31 11:53:58;;;;;;;;;;;;;;;7.45;69.00;101687.50;5060458;28;19912;-73
2021/12/31 11:56:46;;;;;;;;;;;;;;;7.60;70.50;101690.22;5069070;28;19916;-72
2021/12/31 11:59:42;;;;;;;;;;;;;;;7.50;70.07;101684.81;5061325;28;19913;-72
2021/12/31 12:02:34;;;;;;;;;;;;;;;7.61;70.73;101689.94;5070787;28;19913;-72
2021/12/31 12:05:20;;;;;;;;;;;;;;;7.89;69.05;101682.31;5070913;28;19913;-72
2021/12/31 12:08:23;;;;;;;;;;;;;;;8.03;67.81;101676.06;5068765;28;20316;-72
2021/12/31 12:11:07;;;;;;;;;;;;;;;7.76;69.47;101674.78;5070564;28;19912;-73
2021/12/31 12:14:11;;;;;;;;;;;;;;;7.73;69.12;101671.53;5072379;28;19912;-72
2021/12/31 12:16:59;;;;;;;;;;;;;;;7.57;70.12;101672.59;5066313;28;19913;-73
2021/12/31 12:19:46;;;;;;;;;;;;;;;7.43;71.64;101676.94;5067895;28;19913;-73
2021/12/31 12:22:34;;;;;;;;;;;;;;;7.47;71.42;101674.50;5070515;28;19931;-72
2021/12/31 12:25:19;;;;;;;;;;;;;;;7.42;71.87;101672.59;5073281;28;19912;-73
2021/12/31 12:28:11;;;;;;;;;;;;;;;7.63;71.21;101671.53;5069740;28;19920;-73
2021/12/31 12:31:04;;;;;;;;;;;;;;;7.89;69.88;101668.78;5067279;28;19916;-72
2021/12/31 12:33:57;;;;;;;;;;;;;;;7.96;69.50;101663.91;5065297;28;19913;-72
2021/12/31 12:36:42;;;;;;;;;;;;;;;7.90;70.50;101665.00;5064459;28;19913;-73
2021/12/31 12:39:26;;;;;;;;;;;;;;;8.18;69.62;101669.78;5068588;28;19912;-72
2021/12/31 12:42:14;;;;;;;;;;;;;;;7.96;70.63;101667.44;5067167;28;19921;-73
2021/12/31 12:45:00;;;;;;;;;;;;;;;7.90;70.83;101659.59;5057614;28;19917;-73
2021/12/31 12:47:50;;;;;;;;;;;;;;;7.96;71.52;101653.91;5067217;28;19920;-73
2021/12/31 12:50:35;;;;;;;;;;;;;;;8.06;71.29;101653.06;5071512;28;19912;-73
2021/12/31 12:53:21;;;;;;;;;;;;;;;7.98;71.30;101642.75;5064524;28;19912;-72
2021/12/31 12:56:10;;;;;;;;;;;;;;;7.94;71.32;101630.88;5061012;28;19920;-72
2021/12/31 12:58:56;;;;;;;;;;;;;;;8.11;72.06;101634.06;5062026;28;19922;-73
2021/12/31 13:01:41;;;;;;;;;;;;;;;8.05;71.62;101635.97;5060284;28;20046;-74
2021/12/31 13:04:27;;;;;;;;;;;;;;;7.90;72.14;101633.31;5068891;28;19912;-75
2021/12/31 13:07:12;;;;;;;;;;;;;;;7.79;72.60;101625.50;5064288;28;19920;-74
2021/12/31 13:10:03;;;;;;;;;;;;;;;7.70;73.99;101634.19;5066454;28;20369;-74
2021/12/31 13:12:47;;;;;;;;;;;;;;;7.73;73.63;101630.91;5066777;28;19916;-74
2021/12/31 13:15:32;;;;;;;;;;;;;;;7.86;73.33;101631.44;5069068;28;19928;-74
2021/12/31 13:18:27;;;;;;;;;;;;;;;7.87;73.72;101633.88;5073940;28;19912;-74
2021/12/31 13:21:15;;;;;;;;;;;;;;;7.91;73.96;101624.13;5077443;28;19912;-75
2021/12/31 13:23:59;;;;;;;;;;;;;;;8.34;72.28;101619.09;5074727;28;19912;-74
2021/12/31 13:26:50;;;;;;;;;;;;;;;8.19;71.94;101630.78;5067674;28;19916;-74
2021/12/31 13:29:36;;;;;;;;;;;;;;;7.81;73.42;101620.63;5078388;28;20007;-74
2021/12/31 13:32:22;;;;;;;;;;;;;;;7.58;75.40;101617.41;5077546;28;19912;-73
2021/12/31 13:35:09;;;;;;;;;;;;;;;7.94;74.36;101615.44;5065271;28;19917;-73
2021/12/31 13:38:00;;;;;;;;;;;;;;;7.79;75.42;101615.47;5073685;28;19912;-76
2021/12/31 13:40:51;;;;;;;;;;;;;;;7.69;76.00;101615.50;5063270;28;19913;-76
2021/12/31 13:43:36;;;;;;;;;;;;;;;7.61;76.09;101606.03;5062123;28;20285;-76
2021/12/31 13:46:28;;;;;;;;;;;;;;;7.63;76.33;101616.56;5072097;28;19924;-76
2021/12/31 13:49:15;;;;;;;;;;;;;;;7.78;75.10;101615.72;5073261;28;19916;-76
2021/12/31 13:52:15;;;;;;;;;;;;;;;7.79;74.79;101614.66;5067953;28;19913;-76
2021/12/31 13:55:01;;;;;;;;;;;;;;;7.75;75.31;101608.97;5066212;28;20294;-76
2021/12/31 13:57:58;;;;;;;;;;;;;;;7.75;76.17;101608.97;5069769;28;19920;-76
2021/12/31 14:00:43;;;;;;;;;;;;;;;7.79;76.42;101607.34;5065971;28;20381;-76
2021/12/31 14:03:27;;;;;;;;;;;;;;;7.84;76.82;101606.53;5065338;28;19913;-76
2021/12/31 14:06:14;;;;;;;;;;;;;;;7.95;76.58;101602.69;5060096;28;19916;-76
2021/12/31 14:08:59;;;;;;;;;;;;;;;8.13;76.07;101604.78;5066360;28;19912;-76
2021/12/31 14:11:43;;;;;;;;;;;;;;;8.31;75.40;101601.50;5066653;28;19912;-76
2021/12/31 14:14:28;;;;;;;;;;;;;;;8.50;74.48;101598.97;5070039;28;19912;-77
2021/12/31 14:17:12;;;;;;;;;;;;;;;8.63;73.67;101592.94;5066722;28;19920;-76
2021/12/31 14:19:56;;;;;;;;;;;;;;;8.66;73.30;101607.81;5072162;28;19916;-76
2021/12/31 14:22:41;;;;;;;;;;;;;;;8.55;72.98;101607.88;5072082;28;19913;-76
2021/12/31 14:25:27;;;;;;;;;;;;;;;8.61;72.46;101610.56;5054616;28;19912;-76